ADDS METAR Data INFO
IDs: Format: Raw Decoded Include TAF

Data at: 0433 UTC 21 Nov 2017

KMFE 210353Z 00000KT 10SM CLR 16/13 A3004 RMK AO2 SLP172 T01610133
KMFE 210253Z 00000KT 10SM SCT050 17/13 A3004 RMK AO2 SLP172 T01720133 51005
KMFE 210153Z 00000KT 10SM SCT036 OVC050 18/13 A3004 RMK AO2 SLP172 T01830133
KMFE 210053Z 02004KT 10SM FEW037 OVC048 19/13 A3004 RMK AO2 SLP170 T01890128
KMFE 202353Z 03005KT 10SM BKN046 OVC055 19/12 A3003 RMK AO2 SLP167 T01890122 10194 20172 56007
KMFE 202253Z 01005KT 10SM OVC048 19/12 A3003 RMK AO2 SLP169 T01890122
KMFE 202153Z 05005KT 10SM OVC049 19/12 A3003 RMK AO2 SLP169 T01940117
KMFE 202053Z 01007KT 10SM OVC050 19/12 A3005 RMK AO2 SLP175 T01940117 56035
KMFE 201953Z 01005KT 10SM OVC039 19/11 A3009 RMK AO2 SLP188 T01890106
KMFE 201853Z VRB04KT 10SM OVC040 18/10 A3011 RMK AO2 SLP196 T01780100
KMFE 201753Z 34005KT 10SM OVC045 17/10 A3015 RMK AO2 SLP210 60015 T01720100 10172 20122 58011
KMFE 201653Z 31005KT 10SM OVC042 15/11 A3018 RMK AO2 RAE03 SLP219 P0001 T01500106
KMFE 201553Z 29004KT 8SM -RA SCT041 SCT055 BKN070 14/10 A3018 RMK AO2 RAE22B43 SLP218 P0001 T01390100
KMFE 201453Z 33004KT 9SM -RA FEW049 BKN120 13/10 A3019 RMK AO2 LTG DSNT SE TSB1357E29 SLP221 P0013 60013 T01280100 53006
KMFE 201429Z 26003KT 5SM -RA BKN050 12/09 A3019 RMK AO2 LTG DSNT W TSB1357E29 P0011 T01220094
KMFE 201415Z 32003KT 2SM TSRA OVC050 13/09 A3018 RMK AO2 TSB1357 P0008 T01280089
KMFE 201403Z 33004KT 10SM -TSRA OVC050 14/08 A3018 RMK AO2 TSB1357 P0001 T01390083
KMFE 201353Z 35005KT 10SM VCTS -RA OVC055 14/08 A3018 RMK AO2 LTG DSNT NE AND W RAB06 SLP217 P0000 T01440078
KMFE 201350Z 35005KT 10SM VCTS -RA OVC055 14/08 A3018 RMK AO2 LTG DSNT NE AND W RAB06 P0000
KMFE 201253Z 01008KT 10SM OVC060 14/07 A3017 RMK AO2 LTG DSNT N SLP214 T01440067
KMFE 201153Z 35006KT 10SM CLR 14/08 A3015 RMK AO2 SLP208 T01390078 10144 20128 55005
KMFE 201053Z AUTO 01004KT 10SM OVC050 14/08 A3014 RMK AO2 SLP205 T01440078
KMFE 200953Z AUTO 02005KT 10SM FEW070 14/07 A3015 RMK AO2 SLP210 T01390072
KMFE 200853Z AUTO 03004KT 10SM CLR 14/08 A3017 RMK AO2 SLP214 T01390078 56015
KMFE 200753Z AUTO 04005KT 10SM CLR 14/07 A3018 RMK AO2 SLP218 T01390072
KMFE 200653Z AUTO 03003KT 10SM CLR 13/07 A3019 RMK AO2 SLP224 T01330072
KMFE 200553Z 08005KT 10SM CLR 14/07 A3021 RMK AO2 SLP229 T01440067 10183 20144 402220139 58016
KMFE 200453Z 08005KT 10SM CLR 15/07 A3024 RMK AO2 SLP239 T01500067
KMFE 200353Z 08005KT 10SM CLR 15/07 A3025 RMK AO2 SLP244 T01500067
KMFE 200253Z 08005KT 10SM CLR 16/06 A3026 RMK AO2 SLP244 T01560061 51010
KMFE 200153Z 08007KT 10SM CLR 16/06 A3025 RMK AO2 SLP243 T01610056
KMFE 200053Z 06009KT 10SM CLR 17/05 A3024 RMK AO2 SLP238 T01720050
KMFE 192353Z 07008KT 10SM CLR 18/06 A3023 RMK AO2 SLP234 T01830056 10211 20183 55001
KMFE 192253Z 02007KT 10SM CLR 20/03 A3021 RMK AO2 SLP228 T02000028
KMFE 192153Z 03005KT 10SM CLR 21/03 A3021 RMK AO2 SLP228 T02060028
KMFE 192053Z 02008KT 10SM CLR 21/03 A3023 RMK AO2 SLP234 T02110033 56037
KMFE 191953Z 03009KT 10SM CLR 21/04 A3026 RMK AO2 SLP244 T02060039
KMFE 191853Z 01007KT 10SM CLR 19/04 A3030 RMK AO2 SLP258 T01940039
KMFE 191753Z 36012KT 10SM CLR 19/04 A3034 RMK AO2 SLP271 T01890044 10189 20139 58008
KMFE 191653Z 01012G17KT 10SM CLR 18/04 A3037 RMK AO2 SLP282 T01780044